sensor_id;sensor_type;location;lat;lon;timestamp;P1;durP1;ratioP1;P2;durP2;ratioP2
61112;SDS011;47184;57.998;56.184;2023-07-20T00:02:01;13.77;;;5.85;;
61112;SDS011;47184;57.998;56.184;2023-07-20T00:04:28;15.18;;;6.20;;
61112;SDS011;47184;57.998;56.184;2023-07-20T00:06:54;16.70;;;6.45;;
61112;SDS011;47184;57.998;56.184;2023-07-20T00:09:20;11.00;;;5.75;;
61112;SDS011;47184;57.998;56.184;2023-07-20T00:11:50;12.23;;;5.70;;
61112;SDS011;47184;57.998;56.184;2023-07-20T00:14:17;9.98;;;5.57;;
61112;SDS011;47184;57.998;56.184;2023-07-20T00:16:44;12.20;;;5.78;;
61112;SDS011;47184;57.998;56.184;2023-07-20T00:19:12;14.45;;;5.80;;
61112;SDS011;47184;57.998;56.184;2023-07-20T00:21:38;13.75;;;5.97;;
61112;SDS011;47184;57.998;56.184;2023-07-20T00:24:05;19.42;;;6.15;;
61112;SDS011;47184;57.998;56.184;2023-07-20T00:26:32;10.65;;;6.30;;
61112;SDS011;47184;57.998;56.184;2023-07-20T00:28:57;11.15;;;6.55;;
61112;SDS011;47184;57.998;56.184;2023-07-20T00:31:23;14.98;;;5.88;;
61112;SDS011;47184;57.998;56.184;2023-07-20T00:33:49;9.93;;;6.45;;
61112;SDS011;47184;57.998;56.184;2023-07-20T00:36:16;17.17;;;7.38;;
61112;SDS011;47184;57.998;56.184;2023-07-20T00:38:42;13.75;;;7.03;;
61112;SDS011;47184;57.998;56.184;2023-07-20T00:41:08;10.70;;;6.28;;
61112;SDS011;47184;57.998;56.184;2023-07-20T00:43:34;11.15;;;4.78;;
61112;SDS011;47184;57.998;56.184;2023-07-20T00:46:00;10.55;;;5.50;;
61112;SDS011;47184;57.998;56.184;2023-07-20T00:48:28;8.60;;;5.07;;
61112;SDS011;47184;57.998;56.184;2023-07-20T00:50:55;12.20;;;6.57;;
61112;SDS011;47184;57.998;56.184;2023-07-20T00:53:22;9.30;;;5.75;;
61112;SDS011;47184;57.998;56.184;2023-07-20T00:55:49;10.55;;;4.50;;
61112;SDS011;47184;57.998;56.184;2023-07-20T00:58:15;10.75;;;5.85;;
61112;SDS011;47184;57.998;56.184;2023-07-20T01:00:41;9.75;;;4.30;;
61112;SDS011;47184;57.998;56.184;2023-07-20T01:03:07;12.75;;;5.18;;
61112;SDS011;47184;57.998;56.184;2023-07-20T01:05:35;11.60;;;7.05;;
61112;SDS011;47184;57.998;56.184;2023-07-20T01:10:43;14.70;;;7.20;;
61112;SDS011;47184;57.998;56.184;2023-07-20T01:13:13;17.85;;;7.47;;
61112;SDS011;47184;57.998;56.184;2023-07-20T01:15:40;17.13;;;7.32;;
61112;SDS011;47184;57.998;56.184;2023-07-20T01:18:06;17.83;;;6.55;;
61112;SDS011;47184;57.998;56.184;2023-07-20T01:20:33;15.25;;;6.88;;
61112;SDS011;47184;57.998;56.184;2023-07-20T01:29:01;14.88;;;6.45;;
61112;SDS011;47184;57.998;56.184;2023-07-20T01:31:42;12.77;;;6.65;;
61112;SDS011;47184;57.998;56.184;2023-07-20T01:34:10;22.95;;;6.57;;
61112;SDS011;47184;57.998;56.184;2023-07-20T01:36:39;15.45;;;6.28;;
61112;SDS011;47184;57.998;56.184;2023-07-20T01:39:07;12.43;;;5.93;;
61112;SDS011;47184;57.998;56.184;2023-07-20T01:41:34;7.97;;;4.60;;
61112;SDS011;47184;57.998;56.184;2023-07-20T01:44:00;12.60;;;5.35;;
61112;SDS011;47184;57.998;56.184;2023-07-20T01:46:27;11.20;;;5.95;;
61112;SDS011;47184;57.998;56.184;2023-07-20T01:48:54;12.20;;;5.90;;
61112;SDS011;47184;57.998;56.184;2023-07-20T01:51:20;6.25;;;3.35;;
61112;SDS011;47184;57.998;56.184;2023-07-20T01:53:48;15.52;;;5.47;;
61112;SDS011;47184;57.998;56.184;2023-07-20T01:56:14;8.60;;;5.47;;
61112;SDS011;47184;57.998;56.184;2023-07-20T01:58:40;6.82;;;4.82;;
61112;SDS011;47184;57.998;56.184;2023-07-20T02:01:06;18.73;;;5.90;;
61112;SDS011;47184;57.998;56.184;2023-07-20T02:03:31;12.50;;;6.20;;
61112;SDS011;47184;57.998;56.184;2023-07-20T02:05:57;7.43;;;4.85;;
61112;SDS011;47184;57.998;56.184;2023-07-20T02:08:25;16.17;;;6.28;;
61112;SDS011;47184;57.998;56.184;2023-07-20T02:10:51;14.77;;;6.88;;
61112;SDS011;47184;57.998;56.184;2023-07-20T02:13:17;19.00;;;6.53;;
61112;SDS011;47184;57.998;56.184;2023-07-20T02:15:44;13.95;;;6.00;;
61112;SDS011;47184;57.998;56.184;2023-07-20T02:18:10;13.10;;;5.40;;
61112;SDS011;47184;57.998;56.184;2023-07-20T02:20:36;8.18;;;4.25;;
61112;SDS011;47184;57.998;56.184;2023-07-20T02:23:02;9.77;;;5.40;;
61112;SDS011;47184;57.998;56.184;2023-07-20T02:25:28;13.52;;;5.20;;
61112;SDS011;47184;57.998;56.184;2023-07-20T02:27:56;13.57;;;5.95;;
61112;SDS011;47184;57.998;56.184;2023-07-20T02:30:22;7.40;;;5.20;;
61112;SDS011;47184;57.998;56.184;2023-07-20T02:32:48;11.00;;;5.75;;
61112;SDS011;47184;57.998;56.184;2023-07-20T02:35:15;12.02;;;6.25;;
61112;SDS011;47184;57.998;56.184;2023-07-20T02:37:41;15.38;;;6.93;;
61112;SDS011;47184;57.998;56.184;2023-07-20T02:40:08;10.27;;;6.32;;
61112;SDS011;47184;57.998;56.184;2023-07-20T02:42:34;13.75;;;6.22;;
61112;SDS011;47184;57.998;56.184;2023-07-20T02:45:03;10.65;;;5.90;;
61112;SDS011;47184;57.998;56.184;2023-07-20T02:47:32;12.07;;;5.45;;
61112;SDS011;47184;57.998;56.184;2023-07-20T02:49:58;11.63;;;6.35;;
61112;SDS011;47184;57.998;56.184;2023-07-20T02:52:25;10.80;;;5.70;;
61112;SDS011;47184;57.998;56.184;2023-07-20T02:54:51;16.33;;;5.60;;
61112;SDS011;47184;57.998;56.184;2023-07-20T02:57:17;15.13;;;6.28;;
61112;SDS011;47184;57.998;56.184;2023-07-20T02:59:43;14.55;;;7.05;;
61112;SDS011;47184;57.998;56.184;2023-07-20T03:02:12;10.25;;;5.90;;
61112;SDS011;47184;57.998;56.184;2023-07-20T03:04:38;14.93;;;6.30;;
61112;SDS011;47184;57.998;56.184;2023-07-20T03:07:04;14.90;;;6.75;;
61112;SDS011;47184;57.998;56.184;2023-07-20T03:09:31;11.88;;;5.65;;
61112;SDS011;47184;57.998;56.184;2023-07-20T03:11:57;13.68;;;4.97;;
61112;SDS011;47184;57.998;56.184;2023-07-20T03:14:23;15.55;;;6.25;;
61112;SDS011;47184;57.998;56.184;2023-07-20T03:16:49;8.90;;;5.07;;
61112;SDS011;47184;57.998;56.184;2023-07-20T03:19:15;23.27;;;5.97;;
61112;SDS011;47184;57.998;56.184;2023-07-20T03:21:42;7.90;;;4.78;;
61112;SDS011;47184;57.998;56.184;2023-07-20T03:24:08;12.90;;;5.40;;
61112;SDS011;47184;57.998;56.184;2023-07-20T03:26:34;13.60;;;5.50;;
61112;SDS011;47184;57.998;56.184;2023-07-20T03:29:02;12.75;;;5.88;;
61112;SDS011;47184;57.998;56.184;2023-07-20T03:31:29;15.85;;;6.18;;
61112;SDS011;47184;57.998;56.184;2023-07-20T03:33:55;11.10;;;6.00;;
61112;SDS011;47184;57.998;56.184;2023-07-20T03:36:21;12.05;;;6.97;;
61112;SDS011;47184;57.998;56.184;2023-07-20T03:38:49;13.18;;;6.15;;
61112;SDS011;47184;57.998;56.184;2023-07-20T03:41:15;13.45;;;6.65;;
61112;SDS011;47184;57.998;56.184;2023-07-20T03:43:41;20.67;;;6.78;;
61112;SDS011;47184;57.998;56.184;2023-07-20T03:46:08;10.38;;;6.68;;
61112;SDS011;47184;57.998;56.184;2023-07-20T03:48:34;11.82;;;6.05;;
61112;SDS011;47184;57.998;56.184;2023-07-20T03:51:00;12.75;;;5.05;;
61112;SDS011;47184;57.998;56.184;2023-07-20T03:53:26;6.97;;;3.45;;
61112;SDS011;47184;57.998;56.184;2023-07-20T03:55:52;10.65;;;3.40;;
61112;SDS011;47184;57.998;56.184;2023-07-20T03:58:19;5.65;;;3.50;;
61112;SDS011;47184;57.998;56.184;2023-07-20T04:00:49;10.00;;;3.95;;
61112;SDS011;47184;57.998;56.184;2023-07-20T04:03:17;11.60;;;6.22;;
61112;SDS011;47184;57.998;56.184;2023-07-20T04:05:44;6.38;;;4.07;;
61112;SDS011;47184;57.998;56.184;2023-07-20T04:08:13;10.90;;;4.22;;
61112;SDS011;47184;57.998;56.184;2023-07-20T04:10:39;10.18;;;4.75;;
61112;SDS011;47184;57.998;56.184;2023-07-20T04:13:05;8.85;;;4.90;;
61112;SDS011;47184;57.998;56.184;2023-07-20T04:15:32;2.80;;;1.88;;
61112;SDS011;47184;57.998;56.184;2023-07-20T04:17:58;3.45;;;2.13;;
61112;SDS011;47184;57.998;56.184;2023-07-20T04:20:24;8.57;;;4.60;;
61112;SDS011;47184;57.998;56.184;2023-07-20T04:22:50;7.72;;;3.58;;
61112;SDS011;47184;57.998;56.184;2023-07-20T04:25:18;16.48;;;4.40;;
61112;SDS011;47184;57.998;56.184;2023-07-20T04:27:45;8.43;;;4.35;;
61112;SDS011;47184;57.998;56.184;2023-07-20T04:30:11;6.93;;;3.85;;
61112;SDS011;47184;57.998;56.184;2023-07-20T04:32:38;7.45;;;4.82;;
61112;SDS011;47184;57.998;56.184;2023-07-20T04:35:16;10.32;;;4.05;;
61112;SDS011;47184;57.998;56.184;2023-07-20T04:37:45;3.53;;;2.47;;
61112;SDS011;47184;57.998;56.184;2023-07-20T04:40:15;3.15;;;2.35;;
61112;SDS011;47184;57.998;56.184;2023-07-20T04:42:41;6.97;;;4.38;;
61112;SDS011;47184;57.998;56.184;2023-07-20T04:45:08;27.25;;;6.28;;
61112;SDS011;47184;57.998;56.184;2023-07-20T04:47:36;5.10;;;3.38;;
61112;SDS011;47184;57.998;56.184;2023-07-20T04:50:02;2.95;;;2.05;;
61112;SDS011;47184;57.998;56.184;2023-07-20T04:52:29;12.07;;;3.20;;
61112;SDS011;47184;57.998;56.184;2023-07-20T04:54:56;6.03;;;3.50;;
61112;SDS011;47184;57.998;56.184;2023-07-20T04:57:23;5.18;;;3.17;;
61112;SDS011;47184;57.998;56.184;2023-07-20T04:59:49;7.22;;;4.32;;
61112;SDS011;47184;57.998;56.184;2023-07-20T05:02:15;11.60;;;3.33;;
61112;SDS011;47184;57.998;56.184;2023-07-20T05:04:41;9.50;;;4.65;;
61112;SDS011;47184;57.998;56.184;2023-07-20T05:07:08;7.03;;;4.03;;
61112;SDS011;47184;57.998;56.184;2023-07-20T05:09:35;17.00;;;5.15;;
61112;SDS011;47184;57.998;56.184;2023-07-20T05:12:01;9.80;;;4.07;;
61112;SDS011;47184;57.998;56.184;2023-07-20T05:14:28;14.00;;;4.88;;
61112;SDS011;47184;57.998;56.184;2023-07-20T05:16:56;8.52;;;4.75;;
61112;SDS011;47184;57.998;56.184;2023-07-20T05:19:22;7.22;;;3.58;;
61112;SDS011;47184;57.998;56.184;2023-07-20T05:21:50;7.78;;;3.72;;
61112;SDS011;47184;57.998;56.184;2023-07-20T05:24:16;5.40;;;3.78;;
61112;SDS011;47184;57.998;56.184;2023-07-20T05:26:42;6.95;;;4.80;;
61112;SDS011;47184;57.998;56.184;2023-07-20T05:29:08;6.55;;;1.85;;
61112;SDS011;47184;57.998;56.184;2023-07-20T05:31:34;2.65;;;1.75;;
61112;SDS011;47184;57.998;56.184;2023-07-20T05:34:00;7.70;;;4.38;;
61112;SDS011;47184;57.998;56.184;2023-07-20T05:36:26;7.75;;;3.90;;
61112;SDS011;47184;57.998;56.184;2023-07-20T05:38:52;8.77;;;4.25;;
61112;SDS011;47184;57.998;56.184;2023-07-20T05:41:18;9.85;;;4.40;;
61112;SDS011;47184;57.998;56.184;2023-07-20T05:43:44;7.63;;;4.18;;
61112;SDS011;47184;57.998;56.184;2023-07-20T05:46:10;9.70;;;4.53;;
61112;SDS011;47184;57.998;56.184;2023-07-20T05:48:36;10.18;;;3.33;;
61112;SDS011;47184;57.998;56.184;2023-07-20T05:51:02;3.42;;;2.28;;
61112;SDS011;47184;57.998;56.184;2023-07-20T05:53:28;6.50;;;2.88;;
61112;SDS011;47184;57.998;56.184;2023-07-20T05:55:54;4.65;;;2.75;;
61112;SDS011;47184;57.998;56.184;2023-07-20T05:58:20;5.68;;;3.83;;
61112;SDS011;47184;57.998;56.184;2023-07-20T06:00:47;4.15;;;3.20;;
61112;SDS011;47184;57.998;56.184;2023-07-20T06:03:14;4.78;;;3.00;;
61112;SDS011;47184;57.998;56.184;2023-07-20T06:05:42;16.50;;;4.15;;
61112;SDS011;47184;57.998;56.184;2023-07-20T06:08:09;4.90;;;2.72;;
61112;SDS011;47184;57.998;56.184;2023-07-20T06:10:35;7.45;;;3.88;;
61112;SDS011;47184;57.998;56.184;2023-07-20T06:13:01;6.28;;;3.08;;
61112;SDS011;47184;57.998;56.184;2023-07-20T06:15:35;5.47;;;2.92;;
61112;SDS011;47184;57.998;56.184;2023-07-20T06:18:02;7.88;;;3.10;;
61112;SDS011;47184;57.998;56.184;2023-07-20T06:20:29;10.57;;;3.28;;
61112;SDS011;47184;57.998;56.184;2023-07-20T06:22:56;6.93;;;2.47;;
61112;SDS011;47184;57.998;56.184;2023-07-20T06:25:22;8.65;;;3.17;;
61112;SDS011;47184;57.998;56.184;2023-07-20T06:27:49;9.77;;;2.45;;
61112;SDS011;47184;57.998;56.184;2023-07-20T06:30:19;14.98;;;3.75;;
61112;SDS011;47184;57.998;56.184;2023-07-20T06:32:45;14.60;;;3.55;;
61112;SDS011;47184;57.998;56.184;2023-07-20T06:35:11;6.90;;;3.30;;
61112;SDS011;47184;57.998;56.184;2023-07-20T06:37:37;10.88;;;2.10;;
61112;SDS011;47184;57.998;56.184;2023-07-20T06:40:03;9.90;;;2.55;;
61112;SDS011;47184;57.998;56.184;2023-07-20T06:42:30;4.30;;;2.13;;
61112;SDS011;47184;57.998;56.184;2023-07-20T06:44:57;9.38;;;3.30;;
61112;SDS011;47184;57.998;56.184;2023-07-20T06:47:23;2.30;;;1.45;;
61112;SDS011;47184;57.998;56.184;2023-07-20T06:49:49;9.63;;;3.42;;
61112;SDS011;47184;57.998;56.184;2023-07-20T06:52:18;5.40;;;2.58;;
61112;SDS011;47184;57.998;56.184;2023-07-20T06:54:46;5.68;;;2.40;;
61112;SDS011;47184;57.998;56.184;2023-07-20T06:57:12;14.48;;;3.15;;
61112;SDS011;47184;57.998;56.184;2023-07-20T06:59:38;9.57;;;4.13;;
61112;SDS011;47184;57.998;56.184;2023-07-20T07:02:04;17.88;;;3.65;;
61112;SDS011;47184;57.998;56.184;2023-07-20T07:04:31;11.07;;;3.80;;
61112;SDS011;47184;57.998;56.184;2023-07-20T07:06:57;8.10;;;2.60;;
61112;SDS011;47184;57.998;56.184;2023-07-20T07:09:23;4.65;;;2.55;;
61112;SDS011;47184;57.998;56.184;2023-07-20T07:11:50;12.25;;;3.60;;
61112;SDS011;47184;57.998;56.184;2023-07-20T07:14:19;7.95;;;2.13;;
61112;SDS011;47184;57.998;56.184;2023-07-20T07:16:47;10.75;;;3.60;;
61112;SDS011;47184;57.998;56.184;2023-07-20T07:19:13;2.53;;;1.88;;
61112;SDS011;47184;57.998;56.184;2023-07-20T07:21:39;5.68;;;2.40;;
61112;SDS011;47184;57.998;56.184;2023-07-20T07:24:05;15.63;;;3.70;;
61112;SDS011;47184;57.998;56.184;2023-07-20T07:26:33;6.65;;;2.78;;
61112;SDS011;47184;57.998;56.184;2023-07-20T07:28:59;15.45;;;3.97;;
61112;SDS011;47184;57.998;56.184;2023-07-20T07:31:25;7.78;;;3.10;;
61112;SDS011;47184;57.998;56.184;2023-07-20T07:33:51;13.27;;;3.42;;
61112;SDS011;47184;57.998;56.184;2023-07-20T07:36:17;6.00;;;3.17;;
61112;SDS011;47184;57.998;56.184;2023-07-20T07:38:45;4.20;;;2.05;;
61112;SDS011;47184;57.998;56.184;2023-07-20T07:41:11;3.28;;;2.20;;
61112;SDS011;47184;57.998;56.184;2023-07-20T07:43:37;5.45;;;2.20;;
61112;SDS011;47184;57.998;56.184;2023-07-20T07:46:04;3.80;;;2.55;;
61112;SDS011;47184;57.998;56.184;2023-07-20T07:48:30;1.13;;;1.00;;
61112;SDS011;47184;57.998;56.184;2023-07-20T07:50:56;2.03;;;1.63;;
61112;SDS011;47184;57.998;56.184;2023-07-20T07:53:22;4.20;;;1.42;;
61112;SDS011;47184;57.998;56.184;2023-07-20T07:55:51;2.03;;;1.42;;
61112;SDS011;47184;57.998;56.184;2023-07-20T07:58:21;9.65;;;2.28;;
61112;SDS011;47184;57.998;56.184;2023-07-20T08:00:47;8.30;;;2.42;;
61112;SDS011;47184;57.998;56.184;2023-07-20T08:03:13;6.82;;;2.00;;
61112;SDS011;47184;57.998;56.184;2023-07-20T08:05:39;3.80;;;1.90;;
61112;SDS011;47184;57.998;56.184;2023-07-20T08:08:05;6.22;;;2.03;;
61112;SDS011;47184;57.998;56.184;2023-07-20T08:10:31;4.55;;;1.88;;
61112;SDS011;47184;57.998;56.184;2023-07-20T08:12:57;3.13;;;1.83;;
61112;SDS011;47184;57.998;56.184;2023-07-20T08:15:23;5.95;;;1.50;;
61112;SDS011;47184;57.998;56.184;2023-07-20T08:17:49;6.15;;;2.45;;
61112;SDS011;47184;57.998;56.184;2023-07-20T08:20:17;11.95;;;2.45;;
61112;SDS011;47184;57.998;56.184;2023-07-20T08:22:43;2.20;;;1.65;;
61112;SDS011;47184;57.998;56.184;2023-07-20T08:25:09;3.53;;;1.02;;
61112;SDS011;47184;57.998;56.184;2023-07-20T08:27:36;1.98;;;1.02;;
61112;SDS011;47184;57.998;56.184;2023-07-20T08:30:02;5.50;;;1.73;;
61112;SDS011;47184;57.998;56.184;2023-07-20T08:32:32;7.72;;;1.33;;
61112;SDS011;47184;57.998;56.184;2023-07-20T08:34:58;2.28;;;1.40;;
61112;SDS011;47184;57.998;56.184;2023-07-20T08:37:24;5.22;;;1.35;;
61112;SDS011;47184;57.998;56.184;2023-07-20T08:39:51;2.05;;;1.35;;
61112;SDS011;47184;57.998;56.184;2023-07-20T08:42:17;17.88;;;1.38;;
61112;SDS011;47184;57.998;56.184;2023-07-20T08:44:43;1.85;;;0.90;;
61112;SDS011;47184;57.998;56.184;2023-07-20T08:47:10;2.40;;;0.88;;
61112;SDS011;47184;57.998;56.184;2023-07-20T08:49:39;6.40;;;0.77;;
61112;SDS011;47184;57.998;56.184;2023-07-20T08:52:06;1.25;;;0.47;;
61112;SDS011;47184;57.998;56.184;2023-07-20T08:54:33;2.42;;;0.95;;
61112;SDS011;47184;57.998;56.184;2023-07-20T08:57:03;1.83;;;0.77;;
61112;SDS011;47184;57.998;56.184;2023-07-20T08:59:30;2.05;;;0.98;;
61112;SDS011;47184;57.998;56.184;2023-07-20T09:02:00;0.82;;;0.60;;
61112;SDS011;47184;57.998;56.184;2023-07-20T09:04:30;1.92;;;1.10;;
61112;SDS011;47184;57.998;56.184;2023-07-20T09:06:56;8.30;;;1.05;;
61112;SDS011;47184;57.998;56.184;2023-07-20T09:09:23;0.90;;;0.40;;
61112;SDS011;47184;57.998;56.184;2023-07-20T09:11:49;1.60;;;0.55;;
61112;SDS011;47184;57.998;56.184;2023-07-20T09:14:16;6.78;;;1.02;;
61112;SDS011;47184;57.998;56.184;2023-07-20T09:16:48;3.65;;;0.55;;
61112;SDS011;47184;57.998;56.184;2023-07-20T09:19:16;1.92;;;0.60;;
61112;SDS011;47184;57.998;56.184;2023-07-20T09:21:47;4.93;;;0.63;;
61112;SDS011;47184;57.998;56.184;2023-07-20T09:24:14;2.78;;;0.60;;
61112;SDS011;47184;57.998;56.184;2023-07-20T09:26:43;0.77;;;0.57;;
61112;SDS011;47184;57.998;56.184;2023-07-20T09:29:11;1.75;;;0.65;;
61112;SDS011;47184;57.998;56.184;2023-07-20T09:31:37;0.88;;;0.60;;
61112;SDS011;47184;57.998;56.184;2023-07-20T09:34:06;3.35;;;1.55;;
61112;SDS011;47184;57.998;56.184;2023-07-20T09:36:33;2.58;;;1.25;;
61112;SDS011;47184;57.998;56.184;2023-07-20T09:39:01;2.20;;;1.00;;
61112;SDS011;47184;57.998;56.184;2023-07-20T09:41:28;3.83;;;0.80;;
61112;SDS011;47184;57.998;56.184;2023-07-20T09:43:54;3.03;;;1.02;;
61112;SDS011;47184;57.998;56.184;2023-07-20T09:46:20;7.32;;;0.90;;
61112;SDS011;47184;57.998;56.184;2023-07-20T09:48:52;3.80;;;0.95;;
61112;SDS011;47184;57.998;56.184;2023-07-20T09:51:27;8.15;;;0.90;;
61112;SDS011;47184;57.998;56.184;2023-07-20T09:53:54;1.48;;;0.60;;
61112;SDS011;47184;57.998;56.184;2023-07-20T09:56:21;2.83;;;0.50;;
61112;SDS011;47184;57.998;56.184;2023-07-20T09:58:50;0.93;;;0.50;;
61112;SDS011;47184;57.998;56.184;2023-07-20T10:01:20;1.60;;;0.80;;
61112;SDS011;47184;57.998;56.184;2023-07-20T10:03:47;2.67;;;0.65;;
61112;SDS011;47184;57.998;56.184;2023-07-20T10:06:24;1.33;;;0.50;;
61112;SDS011;47184;57.998;56.184;2023-07-20T10:08:53;7.25;;;0.77;;
61112;SDS011;47184;57.998;56.184;2023-07-20T10:11:21;2.22;;;0.80;;
61112;SDS011;47184;57.998;56.184;2023-07-20T10:13:54;4.85;;;1.35;;
61112;SDS011;47184;57.998;56.184;2023-07-20T10:16:28;2.70;;;1.30;;
61112;SDS011;47184;57.998;56.184;2023-07-20T10:19:00;2.83;;;0.35;;
61112;SDS011;47184;57.998;56.184;2023-07-20T10:21:40;2.17;;;1.08;;
61112;SDS011;47184;57.998;56.184;2023-07-20T10:24:10;5.30;;;0.63;;
61112;SDS011;47184;57.998;56.184;2023-07-20T10:26:41;2.70;;;0.60;;
61112;SDS011;47184;57.998;56.184;2023-07-20T10:29:07;2.75;;;0.30;;
61112;SDS011;47184;57.998;56.184;2023-07-20T10:31:36;11.10;;;1.23;;
61112;SDS011;47184;57.998;56.184;2023-07-20T10:34:02;2.53;;;0.57;;
61112;SDS011;47184;57.998;56.184;2023-07-20T10:36:30;1.17;;;0.35;;
61112;SDS011;47184;57.998;56.184;2023-07-20T10:38:56;0.55;;;0.20;;
61112;SDS011;47184;57.998;56.184;2023-07-20T10:41:33;17.52;;;0.95;;
61112;SDS011;47184;57.998;56.184;2023-07-20T10:44:08;1.98;;;0.40;;
61112;SDS011;47184;57.998;56.184;2023-07-20T10:49:04;2.47;;;0.60;;
61112;SDS011;47184;57.998;56.184;2023-07-20T10:51:38;2.15;;;0.47;;
61112;SDS011;47184;57.998;56.184;2023-07-20T10:56:52;3.03;;;0.77;;
61112;SDS011;47184;57.998;56.184;2023-07-20T10:59:18;0.93;;;0.50;;
61112;SDS011;47184;57.998;56.184;2023-07-20T11:01:46;1.77;;;0.60;;
61112;SDS011;47184;57.998;56.184;2023-07-20T11:04:16;0.95;;;0.40;;
61112;SDS011;47184;57.998;56.184;2023-07-20T11:06:44;4.88;;;0.60;;
61112;SDS011;47184;57.998;56.184;2023-07-20T11:09:12;0.63;;;0.40;;
61112;SDS011;47184;57.998;56.184;2023-07-20T11:11:41;0.50;;;0.40;;
61112;SDS011;47184;57.998;56.184;2023-07-20T11:14:09;1.17;;;0.32;;
61112;SDS011;47184;57.998;56.184;2023-07-20T11:16:49;0.50;;;0.45;;
61112;SDS011;47184;57.998;56.184;2023-07-20T11:19:24;3.47;;;0.63;;
61112;SDS011;47184;57.998;56.184;2023-07-20T11:21:51;5.20;;;0.38;;
61112;SDS011;47184;57.998;56.184;2023-07-20T11:24:24;7.63;;;0.60;;
61112;SDS011;47184;57.998;56.184;2023-07-20T11:26:50;1.63;;;0.70;;
61112;SDS011;47184;57.998;56.184;2023-07-20T11:29:18;0.38;;;0.30;;
61112;SDS011;47184;57.998;56.184;2023-07-20T11:31:46;0.77;;;0.30;;
61112;SDS011;47184;57.998;56.184;2023-07-20T11:34:13;4.03;;;0.40;;
61112;SDS011;47184;57.998;56.184;2023-07-20T11:36:41;4.43;;;0.50;;
61112;SDS011;47184;57.998;56.184;2023-07-20T11:39:09;0.43;;;0.22;;
61112;SDS011;47184;57.998;56.184;2023-07-20T11:41:36;4.43;;;0.50;;
61112;SDS011;47184;57.998;56.184;2023-07-20T11:44:04;7.68;;;0.60;;
61112;SDS011;47184;57.998;56.184;2023-07-20T11:46:31;0.22;;;0.22;;
61112;SDS011;47184;57.998;56.184;2023-07-20T11:48:58;3.17;;;0.20;;
61112;SDS011;47184;57.998;56.184;2023-07-20T11:51:27;0.35;;;0.22;;
61112;SDS011;47184;57.998;56.184;2023-07-20T11:53:54;3.15;;;0.55;;
61112;SDS011;47184;57.998;56.184;2023-07-20T11:56:22;3.38;;;0.50;;
61112;SDS011;47184;57.998;56.184;2023-07-20T11:58:49;1.40;;;0.40;;
61112;SDS011;47184;57.998;56.184;2023-07-20T12:01:15;0.20;;;0.20;;
61112;SDS011;47184;57.998;56.184;2023-07-20T12:03:43;0.57;;;0.40;;
61112;SDS011;47184;57.998;56.184;2023-07-20T12:06:10;6.15;;;0.52;;
61112;SDS011;47184;57.998;56.184;2023-07-20T12:08:42;2.45;;;0.57;;
61112;SDS011;47184;57.998;56.184;2023-07-20T12:11:09;1.45;;;0.55;;
61112;SDS011;47184;57.998;56.184;2023-07-20T12:13:41;8.18;;;1.10;;
61112;SDS011;47184;57.998;56.184;2023-07-20T12:18:36;0.98;;;0.50;;
61112;SDS011;47184;57.998;56.184;2023-07-20T12:21:02;8.80;;;0.70;;
61112;SDS011;47184;57.998;56.184;2023-07-20T12:23:34;1.88;;;0.60;;
61112;SDS011;47184;57.998;56.184;2023-07-20T12:26:06;1.48;;;0.40;;
61112;SDS011;47184;57.998;56.184;2023-07-20T12:28:34;2.58;;;0.60;;
61112;SDS011;47184;57.998;56.184;2023-07-20T12:31:05;0.85;;;0.20;;
61112;SDS011;47184;57.998;56.184;2023-07-20T12:33:31;5.35;;;0.52;;
61112;SDS011;47184;57.998;56.184;2023-07-20T12:35:57;1.65;;;0.40;;
61112;SDS011;47184;57.998;56.184;2023-07-20T12:38:24;1.10;;;0.30;;
61112;SDS011;47184;57.998;56.184;2023-07-20T12:40:52;3.92;;;0.30;;
61112;SDS011;47184;57.998;56.184;2023-07-20T12:43:20;0.08;;;0.05;;
61112;SDS011;47184;57.998;56.184;2023-07-20T12:45:46;4.43;;;0.17;;
61112;SDS011;47184;57.998;56.184;2023-07-20T12:48:12;4.30;;;0.32;;
61112;SDS011;47184;57.998;56.184;2023-07-20T12:50:39;1.13;;;0.50;;
61112;SDS011;47184;57.998;56.184;2023-07-20T12:53:05;2.03;;;0.47;;
61112;SDS011;47184;57.998;56.184;2023-07-20T12:55:34;10.10;;;1.38;;
61112;SDS011;47184;57.998;56.184;2023-07-20T12:58:00;4.40;;;1.05;;
61112;SDS011;47184;57.998;56.184;2023-07-20T13:00:26;2.90;;;1.00;;
61112;SDS011;47184;57.998;56.184;2023-07-20T13:02:52;8.15;;;1.35;;
61112;SDS011;47184;57.998;56.184;2023-07-20T13:05:19;4.68;;;0.60;;
61112;SDS011;47184;57.998;56.184;2023-07-20T13:07:46;5.30;;;0.43;;
61112;SDS011;47184;57.998;56.184;2023-07-20T13:10:14;3.33;;;0.35;;
61112;SDS011;47184;57.998;56.184;2023-07-20T13:12:40;3.22;;;0.65;;
61112;SDS011;47184;57.998;56.184;2023-07-20T13:15:07;0.40;;;0.30;;
61112;SDS011;47184;57.998;56.184;2023-07-20T13:17:34;0.50;;;0.20;;
61112;SDS011;47184;57.998;56.184;2023-07-20T13:20:02;1.65;;;0.50;;
61112;SDS011;47184;57.998;56.184;2023-07-20T13:22:30;1.05;;;0.40;;
61112;SDS011;47184;57.998;56.184;2023-07-20T13:24:56;2.47;;;0.40;;
61112;SDS011;47184;57.998;56.184;2023-07-20T13:27:22;0.63;;;0.25;;
61112;SDS011;47184;57.998;56.184;2023-07-20T13:29:48;0.40;;;0.30;;
61112;SDS011;47184;57.998;56.184;2023-07-20T13:32:15;2.22;;;0.40;;
61112;SDS011;47184;57.998;56.184;2023-07-20T13:34:41;5.93;;;0.68;;
61112;SDS011;47184;57.998;56.184;2023-07-20T13:37:08;0.80;;;0.30;;
61112;SDS011;47184;57.998;56.184;2023-07-20T13:39:35;1.95;;;0.50;;
61112;SDS011;47184;57.998;56.184;2023-07-20T13:42:03;4.63;;;0.40;;
61112;SDS011;47184;57.998;56.184;2023-07-20T13:44:31;0.40;;;0.30;;
61112;SDS011;47184;57.998;56.184;2023-07-20T13:46:57;5.20;;;0.20;;
61112;SDS011;47184;57.998;56.184;2023-07-20T13:49:23;1.85;;;0.32;;
61112;SDS011;47184;57.998;56.184;2023-07-20T13:51:49;2.10;;;0.40;;
61112;SDS011;47184;57.998;56.184;2023-07-20T13:54:18;1.38;;;0.17;;
61112;SDS011;47184;57.998;56.184;2023-07-20T13:56:44;0.88;;;0.30;;
61112;SDS011;47184;57.998;56.184;2023-07-20T13:59:10;9.50;;;0.60;;
61112;SDS011;47184;57.998;56.184;2023-07-20T14:01:36;5.57;;;0.40;;
61112;SDS011;47184;57.998;56.184;2023-07-20T14:04:02;0.90;;;0.32;;
61112;SDS011;47184;57.998;56.184;2023-07-20T14:06:31;5.13;;;0.40;;
61112;SDS011;47184;57.998;56.184;2023-07-20T14:08:58;1.50;;;0.55;;
61112;SDS011;47184;57.998;56.184;2023-07-20T14:11:25;1.33;;;0.47;;
61112;SDS011;47184;57.998;56.184;2023-07-20T14:13:52;3.78;;;0.60;;
61112;SDS011;47184;57.998;56.184;2023-07-20T14:16:22;0.60;;;0.30;;
61112;SDS011;47184;57.998;56.184;2023-07-20T14:18:48;0.60;;;0.40;;
61112;SDS011;47184;57.998;56.184;2023-07-20T14:21:15;2.20;;;0.52;;
61112;SDS011;47184;57.998;56.184;2023-07-20T14:23:45;2.20;;;0.70;;
61112;SDS011;47184;57.998;56.184;2023-07-20T14:26:12;4.05;;;0.30;;
61112;SDS011;47184;57.998;56.184;2023-07-20T14:28:39;0.30;;;0.30;;
61112;SDS011;47184;57.998;56.184;2023-07-20T14:31:05;1.02;;;0.50;;
61112;SDS011;47184;57.998;56.184;2023-07-20T14:33:32;2.17;;;0.65;;
61112;SDS011;47184;57.998;56.184;2023-07-20T14:35:58;1.50;;;0.70;;
61112;SDS011;47184;57.998;56.184;2023-07-20T14:38:24;1.25;;;0.45;;
61112;SDS011;47184;57.998;56.184;2023-07-20T14:40:50;1.85;;;0.60;;
61112;SDS011;47184;57.998;56.184;2023-07-20T14:43:17;4.45;;;0.63;;
61112;SDS011;47184;57.998;56.184;2023-07-20T14:45:42;5.70;;;0.60;;
61112;SDS011;47184;57.998;56.184;2023-07-20T14:48:08;1.25;;;0.40;;